createdAt,value
2023-04-15T00:00:37.943Z,15.89
2023-04-15T00:01:41.069Z,15.89
2023-04-15T00:02:45.545Z,15.88
2023-04-15T00:03:49.334Z,15.86
2023-04-15T00:04:53.093Z,15.85
2023-04-15T00:05:56.312Z,15.83
2023-04-15T00:07:00.113Z,15.82
2023-04-15T00:08:03.172Z,15.83
2023-04-15T00:09:06.543Z,15.82
2023-04-15T00:10:10.344Z,15.81
2023-04-15T00:11:13.951Z,15.78
2023-04-15T00:12:17.109Z,15.79
2023-04-15T00:13:21.220Z,15.78
2023-04-15T00:14:24.160Z,15.77
2023-04-15T00:15:28.103Z,15.76
2023-04-15T00:16:31.690Z,15.76
2023-04-15T00:17:35.193Z,15.76
2023-04-15T00:18:38.933Z,15.75
2023-04-15T00:19:42.841Z,15.77
2023-04-15T00:20:46.239Z,15.75
2023-04-15T00:21:49.518Z,15.74
2023-04-15T00:22:53.444Z,15.75
2023-04-15T00:23:57.437Z,15.75
2023-04-15T00:25:00.679Z,15.75
2023-04-15T00:26:16.574Z,15.75
2023-04-15T00:27:20.612Z,15.76
2023-04-15T00:28:23.958Z,15.75
2023-04-15T00:29:27.543Z,15.76
2023-04-15T00:30:31.369Z,15.78
2023-04-15T00:31:34.997Z,15.77
2023-04-15T00:32:38.084Z,15.76
2023-04-15T00:33:41.355Z,15.78
2023-04-15T00:34:44.506Z,15.77
2023-04-15T00:35:48.548Z,15.79
2023-04-15T00:36:52.729Z,15.79
2023-04-15T00:37:56.218Z,15.81
2023-04-15T00:38:59.495Z,15.80
2023-04-15T00:40:03.310Z,15.80
2023-04-15T00:41:06.523Z,15.81
2023-04-15T00:42:10.244Z,15.81
2023-04-15T00:43:13.753Z,15.80
2023-04-15T00:44:17.344Z,15.78
2023-04-15T00:45:20.814Z,15.74
2023-04-15T00:46:23.898Z,15.72
2023-04-15T00:47:27.784Z,15.72
2023-04-15T00:48:31.182Z,15.72
2023-04-15T00:49:34.536Z,15.71
2023-04-15T00:50:38.244Z,15.72
2023-04-15T00:51:41.549Z,15.71
2023-04-15T00:52:45.207Z,15.69
2023-04-15T00:53:48.384Z,15.69
2023-04-15T00:54:53.442Z,15.68
2023-04-15T00:55:56.782Z,15.69
2023-04-15T00:57:00.118Z,15.68
2023-04-15T00:58:03.297Z,15.69
2023-04-15T00:59:09.795Z,15.68
2023-04-15T01:00:13.657Z,15.67
2023-04-15T01:01:16.805Z,15.67
2023-04-15T01:02:20.566Z,15.67
2023-04-15T01:03:23.981Z,15.67
2023-04-15T01:04:27.244Z,15.66
2023-04-15T01:05:31.265Z,15.67
2023-04-15T01:06:34.660Z,15.67
2023-04-15T01:07:37.726Z,15.66
2023-04-15T01:08:41.106Z,15.65
2023-04-15T01:09:44.331Z,15.64
2023-04-15T01:10:47.661Z,15.64
2023-04-15T01:11:50.836Z,15.65
2023-04-15T01:12:54.024Z,15.65
2023-04-15T01:14:00.507Z,15.63
2023-04-15T01:15:03.535Z,15.62
2023-04-15T01:16:07.385Z,15.62
2023-04-15T01:17:11.070Z,15.61
2023-04-15T01:18:16.415Z,15.63
2023-04-15T01:19:19.874Z,15.64
2023-04-15T01:20:23.545Z,15.62
2023-04-15T01:21:27.241Z,15.63
2023-04-15T01:22:30.520Z,15.62
2023-04-15T01:23:33.787Z,15.62
2023-04-15T01:24:36.991Z,15.61
2023-04-15T01:25:39.977Z,15.63
2023-04-15T01:26:44.587Z,15.62
2023-04-15T01:27:48.322Z,15.63
2023-04-15T01:28:52.426Z,15.62
2023-04-15T01:29:57.679Z,15.65
2023-04-15T01:31:10.328Z,15.65
2023-04-15T01:32:13.609Z,15.63
2023-04-15T01:33:35.369Z,15.63
2023-04-15T01:34:57.618Z,15.62
2023-04-15T01:36:19.196Z,15.61
2023-04-15T01:37:22.776Z,15.61
2023-04-15T01:38:27.748Z,15.60
2023-04-15T01:39:30.769Z,15.60
2023-04-15T01:40:34.369Z,15.60
2023-04-15T01:41:38.584Z,15.61
2023-04-15T01:42:42.682Z,15.61
2023-04-15T01:43:46.935Z,15.60
2023-04-15T01:44:51.732Z,15.60
2023-04-15T01:45:57.168Z,15.62
2023-04-15T01:47:02.956Z,15.61
2023-04-15T01:48:07.846Z,15.60
2023-04-15T01:49:15.360Z,15.58
2023-04-15T01:50:20.023Z,15.59
2023-04-15T01:51:25.797Z,15.58
2023-04-15T01:52:30.051Z,15.63
2023-04-15T01:53:34.999Z,15.59
2023-04-15T01:54:40.424Z,15.59
2023-04-15T01:55:44.877Z,15.64
2023-04-15T01:56:52.262Z,15.62
2023-04-15T01:57:57.330Z,15.60
2023-04-15T01:59:02.422Z,15.58
2023-04-15T02:00:12.212Z,15.57
2023-04-15T02:01:23.202Z,15.55
2023-04-15T02:02:28.636Z,15.55
2023-04-15T02:03:34.302Z,15.55
2023-04-15T02:04:38.814Z,15.53
2023-04-15T02:05:43.865Z,15.53
2023-04-15T02:06:48.294Z,15.53
2023-04-15T02:07:52.802Z,15.53
2023-04-15T02:08:57.703Z,15.56
2023-04-15T02:10:01.938Z,15.56
2023-04-15T02:11:06.465Z,15.56
2023-04-15T02:12:11.378Z,15.55
2023-04-15T02:13:17.647Z,15.56
2023-04-15T02:14:22.589Z,15.56
2023-04-15T02:15:27.222Z,15.57
2023-04-15T02:16:32.373Z,15.57
2023-04-15T02:17:37.080Z,15.57
2023-04-15T02:18:41.865Z,15.58
2023-04-15T02:19:47.500Z,15.61
2023-04-15T02:20:54.708Z,15.57
2023-04-15T02:21:59.414Z,15.55
2023-04-15T02:23:04.208Z,15.55
2023-04-15T02:24:08.996Z,15.53
2023-04-15T02:25:13.572Z,15.52
2023-04-15T02:26:18.667Z,15.50
2023-04-15T02:27:23.095Z,15.49
2023-04-15T02:28:28.542Z,15.48
2023-04-15T02:29:33.619Z,15.47
2023-04-15T02:30:38.353Z,15.48
2023-04-15T02:31:42.857Z,15.48
2023-04-15T02:32:47.620Z,15.47
2023-04-15T02:33:52.113Z,15.45
2023-04-15T02:34:56.589Z,15.44
2023-04-15T02:36:01.154Z,15.43
2023-04-15T02:37:06.576Z,15.42
2023-04-15T02:38:13.388Z,15.40
2023-04-15T02:39:19.570Z,15.43
2023-04-15T02:40:25.038Z,15.42
2023-04-15T02:41:31.076Z,15.42
2023-04-15T02:42:36.457Z,15.42
2023-04-15T02:43:41.164Z,15.42
2023-04-15T02:44:46.721Z,15.43
2023-04-15T02:45:51.853Z,15.42
2023-04-15T02:46:57.950Z,15.41
2023-04-15T02:48:07.068Z,15.41
2023-04-15T02:49:11.616Z,15.42
2023-04-15T02:50:16.588Z,15.40
2023-04-15T02:51:21.366Z,15.40
2023-04-15T02:52:26.774Z,15.38
2023-04-15T02:53:31.520Z,15.38
2023-04-15T02:54:35.902Z,15.37
2023-04-15T02:55:40.258Z,15.37
2023-04-15T02:56:44.926Z,15.38
2023-04-15T02:57:49.132Z,15.40
2023-04-15T02:58:57.057Z,15.38
2023-04-15T03:00:01.861Z,15.38
2023-04-15T03:01:08.287Z,15.37
2023-04-15T03:02:12.841Z,15.36
2023-04-15T03:03:17.542Z,15.37
2023-04-15T03:04:22.107Z,15.38
2023-04-15T03:05:26.709Z,15.39
2023-04-15T03:06:31.481Z,15.40
2023-04-15T03:07:35.972Z,15.41
2023-04-15T03:08:40.832Z,15.43
2023-04-15T03:09:46.228Z,15.43
2023-04-15T03:10:53.043Z,15.42
2023-04-15T03:11:57.590Z,15.41
2023-04-15T03:13:02.636Z,15.41
2023-04-15T03:14:07.139Z,15.47
2023-04-15T03:15:15.087Z,15.47
2023-04-15T03:16:22.949Z,15.46
2023-04-15T03:17:27.703Z,15.43
2023-04-15T03:18:32.255Z,15.43
2023-04-15T03:19:39.387Z,15.41
2023-04-15T03:20:44.317Z,15.41
2023-04-15T03:21:50.523Z,15.40
2023-04-15T03:22:54.767Z,15.38
2023-04-15T03:24:00.538Z,15.38
2023-04-15T03:25:06.221Z,15.38
2023-04-15T03:26:10.768Z,15.37
2023-04-15T03:27:15.404Z,15.35
2023-04-15T03:28:20.094Z,15.37
2023-04-15T03:29:26.664Z,15.36
2023-04-15T03:30:31.332Z,15.39
2023-04-15T03:31:36.016Z,15.37
2023-04-15T03:32:41.057Z,15.36
2023-04-15T03:33:46.226Z,15.36
2023-04-15T03:34:50.819Z,15.37
2023-04-15T03:35:55.454Z,15.40
2023-04-15T03:36:59.843Z,15.39
2023-04-15T03:38:04.338Z,15.39
2023-04-15T03:39:08.758Z,15.38
2023-04-15T03:40:13.300Z,15.39
2023-04-15T03:41:18.040Z,15.41
2023-04-15T03:42:22.875Z,15.42
2023-04-15T03:43:27.336Z,15.43
2023-04-15T03:44:32.059Z,15.36
2023-04-15T03:45:36.457Z,15.43
2023-04-15T03:46:40.809Z,15.42
2023-04-15T03:47:45.497Z,15.42
2023-04-15T03:48:49.744Z,15.41
2023-04-15T03:49:54.413Z,15.40
2023-04-15T03:50:58.858Z,15.39
2023-04-15T03:52:02.959Z,15.38
2023-04-15T03:53:07.275Z,15.38
2023-04-15T03:54:12.422Z,15.38
2023-04-15T03:55:16.784Z,15.36
2023-04-15T03:56:21.671Z,15.36
2023-04-15T03:57:26.527Z,15.35
2023-04-15T03:58:31.295Z,15.34
2023-04-15T03:59:35.798Z,15.34
2023-04-15T04:00:41.069Z,15.33
2023-04-15T04:01:46.194Z,15.35
2023-04-15T04:02:51.413Z,15.34
2023-04-15T04:03:55.779Z,15.34
2023-04-15T04:05:00.278Z,15.33
2023-04-15T04:06:05.011Z,15.32
2023-04-15T04:07:10.039Z,15.32
2023-04-15T04:08:15.073Z,15.31
2023-04-15T04:09:19.811Z,15.30
2023-04-15T04:10:24.025Z,15.32
2023-04-15T04:11:29.297Z,15.32
2023-04-15T04:12:33.972Z,15.32
2023-04-15T04:13:38.865Z,15.31
2023-04-15T04:14:43.969Z,15.30
2023-04-15T04:15:48.462Z,15.29
2023-04-15T04:16:52.834Z,15.29
2023-04-15T04:17:57.727Z,15.28
2023-04-15T04:19:02.823Z,15.27
2023-04-15T04:20:07.954Z,15.27
2023-04-15T04:21:12.583Z,15.28
2023-04-15T04:22:18.354Z,15.28
2023-04-15T04:23:22.902Z,15.26
2023-04-15T04:24:27.152Z,15.26
2023-04-15T04:25:31.528Z,15.27
2023-04-15T04:26:35.951Z,15.27
2023-04-15T04:27:40.959Z,15.26
2023-04-15T04:28:45.578Z,15.25
2023-04-15T04:29:50.598Z,15.23
2023-04-15T04:30:54.810Z,15.22
2023-04-15T04:31:59.782Z,15.23
2023-04-15T04:33:04.418Z,15.23
2023-04-15T04:34:09.484Z,15.22
2023-04-15T04:35:13.497Z,15.23
2023-04-15T04:36:17.661Z,15.22
2023-04-15T04:37:22.017Z,15.22
2023-04-15T04:38:26.845Z,15.22
2023-04-15T04:39:31.574Z,15.22
2023-04-15T04:40:35.972Z,15.23
2023-04-15T04:41:40.316Z,15.23
2023-04-15T04:42:44.451Z,15.22
2023-04-15T04:43:49.068Z,15.22
2023-04-15T04:44:53.902Z,15.22
2023-04-15T04:45:58.170Z,15.19
2023-04-15T04:47:02.995Z,15.19
2023-04-15T04:48:09.302Z,15.19
2023-04-15T04:49:13.373Z,15.18
2023-04-15T04:50:17.875Z,15.16
2023-04-15T04:51:22.495Z,15.13
2023-04-15T04:52:27.579Z,15.12
2023-04-15T04:53:31.743Z,15.12
2023-04-15T04:54:36.518Z,15.14
2023-04-15T04:55:41.212Z,15.14
2023-04-15T04:56:45.564Z,15.13
2023-04-15T04:57:50.307Z,15.14
2023-04-15T04:58:54.920Z,15.15
2023-04-15T04:59:59.269Z,15.16
2023-04-15T05:01:03.673Z,15.16
2023-04-15T05:02:08.420Z,15.17
2023-04-15T05:03:13.261Z,15.16
2023-04-15T05:04:18.257Z,15.18
2023-04-15T05:05:22.571Z,15.16
2023-04-15T05:06:27.317Z,15.16
2023-04-15T05:07:31.880Z,15.15
2023-04-15T05:08:38.092Z,15.13
2023-04-15T05:09:44.526Z,15.13
2023-04-15T05:10:49.416Z,15.15
2023-04-15T05:11:54.103Z,15.10
2023-04-15T05:12:58.311Z,15.08
2023-04-15T05:14:02.888Z,15.10
2023-04-15T05:15:07.592Z,15.08
2023-04-15T05:16:12.392Z,15.08
2023-04-15T05:17:17.018Z,15.06
2023-04-15T05:18:21.555Z,15.06
2023-04-15T05:19:26.068Z,15.05
2023-04-15T05:20:30.624Z,15.05
2023-04-15T05:21:36.666Z,15.08
2023-04-15T05:22:42.576Z,15.07
2023-04-15T05:23:47.158Z,15.04
2023-04-15T05:24:56.008Z,15.02
2023-04-15T05:26:00.864Z,15.00
2023-04-15T05:27:05.354Z,15.01
2023-04-15T05:28:09.740Z,14.98
2023-04-15T05:29:14.758Z,14.96
2023-04-15T05:30:19.270Z,14.97
2023-04-15T05:31:23.970Z,14.98
2023-04-15T05:32:29.058Z,14.98
2023-04-15T05:33:33.423Z,14.96
2023-04-15T05:34:38.021Z,14.98
2023-04-15T05:35:42.438Z,14.93
2023-04-15T05:36:46.750Z,14.91
2023-04-15T05:37:51.233Z,14.92
2023-04-15T05:38:55.951Z,14.92
2023-04-15T05:40:00.743Z,14.92
2023-04-15T05:41:04.991Z,14.92
2023-04-15T05:42:09.405Z,14.90
2023-04-15T05:43:14.124Z,14.88
2023-04-15T05:44:18.925Z,14.85
2023-04-15T05:45:23.266Z,14.86
2023-04-15T05:46:27.721Z,14.86
2023-04-15T05:47:32.744Z,14.87
2023-04-15T05:48:37.186Z,14.87
2023-04-15T05:49:42.329Z,14.88
2023-04-15T05:50:46.836Z,14.88
2023-04-15T05:51:51.284Z,14.88
2023-04-15T05:52:55.512Z,14.88
2023-04-15T05:54:00.026Z,14.88
2023-04-15T05:55:04.268Z,14.88
2023-04-15T05:56:08.438Z,14.88
2023-04-15T05:57:12.762Z,14.88
2023-04-15T05:58:17.450Z,14.87
2023-04-15T05:59:21.885Z,14.87
2023-04-15T06:00:27.055Z,14.87
2023-04-15T06:01:32.196Z,14.87
2023-04-15T06:02:37.066Z,14.87
2023-04-15T06:03:42.003Z,14.88
2023-04-15T06:04:46.331Z,14.85
2023-04-15T06:05:50.553Z,14.85
2023-04-15T06:06:55.075Z,14.85
2023-04-15T06:07:59.793Z,14.85
2023-04-15T06:09:04.468Z,14.86
2023-04-15T06:10:09.320Z,14.89
2023-04-15T06:11:13.870Z,14.88
2023-04-15T06:12:17.866Z,14.87
2023-04-15T06:13:22.035Z,14.84
2023-04-15T06:14:26.408Z,14.83
2023-04-15T06:15:31.478Z,14.85
2023-04-15T06:16:37.767Z,14.87
2023-04-15T06:17:42.917Z,14.90
2023-04-15T06:18:47.774Z,14.89
2023-04-15T06:19:56.029Z,14.90
2023-04-15T06:21:00.712Z,14.92
2023-04-15T06:22:04.997Z,14.96
2023-04-15T06:23:09.610Z,15.03
2023-04-15T06:24:13.891Z,15.04
2023-04-15T06:25:18.651Z,15.05
2023-04-15T06:26:23.517Z,15.06
2023-04-15T06:27:27.906Z,15.10
2023-04-15T06:28:32.441Z,15.13
2023-04-15T06:29:36.998Z,15.20
2023-04-15T06:30:41.104Z,15.27
2023-04-15T06:31:45.383Z,15.38
2023-04-15T06:32:49.743Z,15.45
2023-04-15T06:33:53.746Z,15.56
2023-04-15T06:34:58.486Z,15.66
2023-04-15T06:36:03.410Z,15.71
2023-04-15T06:37:08.074Z,15.76
2023-04-15T06:38:12.892Z,15.82
2023-04-15T06:39:17.153Z,15.83
2023-04-15T06:40:21.500Z,15.86
2023-04-15T06:41:25.962Z,15.84
2023-04-15T06:42:30.157Z,15.87
2023-04-15T06:43:34.676Z,15.90
2023-04-15T06:44:39.252Z,15.92
2023-04-15T06:45:43.920Z,15.94
2023-04-15T06:46:48.423Z,15.94
2023-04-15T06:47:52.923Z,15.96
2023-04-15T06:48:57.489Z,15.83
2023-04-15T06:50:01.772Z,15.72
2023-04-15T06:51:06.401Z,15.63
2023-04-15T06:52:11.740Z,15.58
2023-04-15T06:53:16.526Z,15.47
2023-04-15T06:54:20.712Z,15.47
2023-04-15T06:55:24.863Z,15.48
2023-04-15T06:56:29.473Z,15.47
2023-04-15T06:57:35.153Z,15.48
2023-04-15T06:58:39.844Z,15.54
2023-04-15T06:59:44.262Z,15.61
2023-04-15T07:00:49.437Z,15.72
2023-04-15T07:01:54.294Z,15.85
2023-04-15T07:02:59.182Z,16.64
2023-04-15T07:04:03.739Z,17.44
2023-04-15T07:05:08.696Z,17.60
2023-04-15T07:06:14.024Z,17.86
2023-04-15T07:07:18.751Z,17.95
2023-04-15T07:08:23.829Z,18.10
2023-04-15T07:09:28.807Z,18.51
2023-04-15T07:10:33.982Z,18.92
2023-04-15T07:11:37.966Z,19.02
2023-04-15T07:12:42.849Z,19.89
2023-04-15T07:13:47.489Z,20.88
2023-04-15T07:14:52.277Z,21.91
2023-04-15T07:15:56.678Z,22.88
2023-04-15T07:17:01.256Z,23.70
2023-04-15T07:18:06.131Z,24.25
2023-04-15T07:19:10.707Z,25.05
2023-04-15T07:20:15.561Z,25.72
2023-04-15T07:21:20.172Z,26.21
2023-04-15T07:22:24.513Z,25.65
2023-04-15T07:23:29.213Z,25.24
2023-04-15T07:24:33.259Z,25.20
2023-04-15T07:25:37.919Z,25.24
2023-04-15T07:26:42.450Z,24.61
2023-04-15T07:27:47.070Z,24.79
2023-04-15T07:28:52.185Z,24.80
2023-04-15T07:29:57.515Z,25.40
2023-04-15T07:31:02.044Z,25.52
2023-04-15T07:32:06.611Z,25.80
2023-04-15T07:33:11.339Z,25.89
2023-04-15T07:34:15.675Z,26.38
2023-04-15T07:35:22.303Z,26.96
2023-04-15T07:36:26.892Z,27.18
2023-04-15T07:37:31.112Z,27.43
2023-04-15T07:38:35.334Z,27.78
2023-04-15T07:39:39.637Z,28.01
2023-04-15T07:40:44.310Z,27.73
2023-04-15T07:41:49.617Z,27.53
2023-04-15T07:42:54.369Z,26.56
2023-04-15T07:43:58.496Z,25.57
2023-04-15T07:45:02.472Z,24.47
2023-04-15T07:46:07.980Z,23.99
2023-04-15T07:47:12.958Z,24.39
2023-04-15T07:48:17.380Z,24.86
2023-04-15T07:49:22.391Z,24.45
2023-04-15T07:50:26.963Z,23.99
2023-04-15T07:51:31.303Z,23.05
2023-04-15T07:52:39.861Z,22.80
2023-04-15T07:53:45.171Z,22.64
2023-04-15T07:54:49.903Z,22.93
2023-04-15T07:55:54.666Z,24.24
2023-04-15T07:56:59.709Z,24.55
2023-04-15T07:58:03.894Z,24.56
2023-04-15T07:59:09.105Z,24.23
2023-04-15T08:00:14.166Z,23.76
2023-04-15T08:01:18.728Z,23.89
2023-04-15T08:02:23.889Z,23.62
2023-04-15T08:03:29.078Z,23.65
2023-04-15T08:04:34.725Z,23.20
2023-04-15T08:05:39.524Z,22.96
2023-04-15T08:06:43.881Z,22.08
2023-04-15T08:07:48.024Z,22.20
2023-04-15T08:08:53.035Z,22.09
2023-04-15T08:09:57.770Z,21.94
2023-04-15T08:11:02.310Z,21.71
2023-04-15T08:12:06.961Z,22.20
2023-04-15T08:13:11.445Z,22.36
2023-04-15T08:14:15.374Z,22.81
2023-04-15T08:15:19.590Z,22.55
2023-04-15T08:16:24.659Z,22.97
2023-04-15T08:17:29.400Z,24.07
2023-04-15T08:18:34.063Z,25.21
2023-04-15T08:19:38.347Z,25.63
2023-04-15T08:20:43.037Z,25.84
2023-04-15T08:21:47.933Z,26.10
2023-04-15T08:22:53.500Z,25.74
2023-04-15T08:23:57.687Z,25.49
2023-04-15T08:25:02.107Z,25.00
2023-04-15T08:26:06.316Z,24.18
2023-04-15T08:27:10.972Z,24.27
2023-04-15T08:28:15.037Z,25.26
2023-04-15T08:29:19.335Z,25.43
2023-04-15T08:30:23.380Z,26.08
2023-04-15T08:31:28.981Z,26.96
2023-04-15T08:32:33.304Z,28.04
2023-04-15T08:33:37.567Z,29.13
2023-04-15T08:34:41.986Z,29.58
2023-04-15T08:35:46.595Z,29.14
2023-04-15T08:36:51.043Z,29.91
2023-04-15T08:37:55.898Z,30.79
2023-04-15T08:39:02.393Z,31.65
2023-04-15T08:40:07.059Z,31.77
2023-04-15T08:41:14.464Z,32.27
2023-04-15T08:42:19.387Z,32.56
2023-04-15T08:43:29.310Z,32.64
2023-04-15T08:44:37.957Z,33.48
2023-04-15T08:45:41.973Z,33.65
2023-04-15T08:46:46.757Z,33.65
2023-04-15T08:47:51.669Z,33.48
2023-04-15T08:48:57.373Z,33.52
2023-04-15T08:50:01.675Z,33.97
2023-04-15T08:51:06.226Z,34.18
2023-04-15T08:52:11.123Z,33.51
2023-04-15T08:53:16.213Z,32.34
2023-04-15T08:54:20.434Z,31.80
2023-04-15T08:55:24.593Z,32.15
2023-04-15T08:56:28.718Z,31.73
2023-04-15T08:57:33.808Z,32.28
2023-04-15T08:58:38.520Z,32.55
2023-04-15T08:59:43.434Z,33.29
2023-04-15T09:00:49.712Z,33.54
2023-04-15T09:01:54.204Z,33.91
2023-04-15T09:02:58.387Z,33.99
2023-04-15T09:04:03.563Z,34.07
2023-04-15T09:05:08.483Z,34.62
2023-04-15T09:06:12.886Z,35.25
2023-04-15T09:07:17.896Z,35.83
2023-04-15T09:08:23.194Z,36.31
2023-04-15T09:09:28.023Z,36.83
2023-04-15T09:10:33.019Z,37.27
2023-04-15T09:11:37.389Z,37.75
2023-04-15T09:12:41.900Z,38.05
2023-04-15T09:13:47.154Z,38.04
2023-04-15T09:14:51.617Z,38.31
2023-04-15T09:15:56.768Z,38.03
2023-04-15T09:17:05.081Z,37.98
2023-04-15T09:18:09.737Z,38.32
2023-04-15T09:19:23.419Z,38.60
2023-04-15T09:20:27.915Z,38.88
2023-04-15T09:21:32.536Z,39.03
2023-04-15T09:22:38.318Z,39.13
2023-04-15T09:23:42.920Z,39.19
2023-04-15T09:24:47.684Z,39.01
2023-04-15T09:25:52.019Z,39.03
2023-04-15T09:26:57.173Z,38.84
2023-04-15T09:28:02.574Z,38.67
2023-04-15T09:29:10.590Z,38.64
2023-04-15T09:30:15.452Z,38.29
2023-04-15T09:31:19.833Z,38.42
2023-04-15T09:32:25.506Z,38.14
2023-04-15T09:33:30.594Z,38.17
2023-04-15T09:34:38.933Z,38.26
2023-04-15T09:35:43.374Z,38.57
2023-04-15T09:36:49.131Z,38.72
2023-04-15T09:37:55.533Z,38.91
2023-04-15T09:39:01.115Z,38.71
2023-04-15T09:40:06.326Z,38.61
2023-04-15T09:41:19.462Z,38.78
2023-04-15T09:42:27.911Z,38.89
2023-04-15T09:43:39.735Z,39.03
2023-04-15T09:44:44.493Z,39.28
2023-04-15T09:45:53.659Z,39.13
2023-04-15T09:46:58.265Z,39.15
2023-04-15T09:48:26.063Z,39.28
2023-04-15T09:49:30.959Z,39.52
2023-04-15T09:50:35.420Z,39.85
2023-04-15T09:51:39.933Z,39.61
2023-04-15T09:52:44.960Z,38.84
2023-04-15T09:53:49.353Z,38.92
2023-04-15T09:54:57.131Z,39.20
2023-04-15T09:56:04.408Z,39.21
2023-04-15T09:57:09.039Z,38.66
2023-04-15T09:58:39.862Z,37.74
2023-04-15T09:59:44.100Z,37.51
2023-04-15T10:00:48.801Z,38.07
2023-04-15T10:01:53.410Z,38.23
2023-04-15T10:02:58.307Z,38.52
2023-04-15T10:04:06.118Z,37.99
2023-04-15T10:05:15.267Z,38.00
2023-04-15T10:06:20.323Z,38.37
2023-04-15T10:07:25.176Z,38.75
2023-04-15T10:08:34.662Z,39.06
2023-04-15T10:09:39.324Z,39.45
2023-04-15T10:10:43.772Z,39.67
2023-04-15T10:11:48.524Z,39.78
2023-04-15T10:12:52.698Z,40.00
2023-04-15T10:13:57.241Z,40.25
2023-04-15T10:15:02.278Z,39.98
2023-04-15T10:16:08.195Z,39.59
2023-04-15T10:17:16.460Z,39.63
2023-04-15T10:18:21.649Z,39.20
2023-04-15T10:19:26.397Z,39.15
2023-04-15T10:20:31.364Z,39.52
2023-04-15T10:21:36.304Z,39.87
2023-04-15T10:22:42.272Z,40.27
2023-04-15T10:23:46.574Z,40.57
2023-04-15T10:24:51.779Z,40.61
2023-04-15T10:25:56.866Z,40.62
2023-04-15T10:27:01.466Z,40.59
2023-04-15T10:28:07.253Z,40.20
2023-04-15T10:29:11.251Z,40.09
2023-04-15T10:30:15.432Z,40.36
2023-04-15T10:31:20.886Z,40.57
2023-04-15T10:32:25.721Z,40.79
2023-04-15T10:33:29.760Z,40.89
2023-04-15T10:34:34.977Z,40.23
2023-04-15T10:35:39.854Z,39.77
2023-04-15T10:36:43.795Z,40.07
2023-04-15T10:37:48.199Z,40.33
2023-04-15T10:38:52.726Z,40.43
2023-04-15T10:39:57.444Z,39.95
2023-04-15T10:41:20.119Z,39.78
2023-04-15T10:42:24.985Z,38.72
2023-04-15T10:43:28.924Z,38.95
2023-04-15T10:44:33.881Z,39.30
2023-04-15T10:45:38.989Z,39.59
2023-04-15T10:46:43.942Z,39.62
2023-04-15T10:47:52.407Z,39.29
2023-04-15T10:48:56.645Z,39.14
2023-04-15T10:50:02.030Z,39.41
2023-04-15T10:51:06.299Z,39.23
2023-04-15T10:52:10.859Z,39.16
2023-04-15T10:53:21.875Z,39.18
2023-04-15T10:54:26.005Z,39.56
2023-04-15T10:55:33.225Z,38.81
2023-04-15T10:56:37.462Z,38.48
2023-04-15T10:57:42.068Z,38.38
2023-04-15T10:58:47.245Z,38.09
2023-04-15T11:00:01.739Z,38.23
2023-04-15T11:01:06.595Z,38.23
2023-04-15T11:02:11.185Z,37.84
2023-04-15T11:03:16.305Z,38.43
2023-04-15T11:04:40.946Z,38.00
2023-04-15T11:05:50.418Z,37.91
2023-04-15T11:07:06.691Z,37.35
2023-04-15T11:08:11.521Z,37.29
2023-04-15T11:09:48.769Z,37.70
2023-04-15T11:10:53.902Z,37.29
2023-04-15T11:12:11.963Z,36.42
2023-04-15T11:13:17.685Z,35.74
2023-04-15T11:14:23.191Z,36.24
2023-04-15T11:15:33.198Z,36.38
2023-04-15T11:16:45.766Z,36.53
2023-04-15T11:17:50.341Z,36.10
2023-04-15T11:18:56.557Z,35.04
2023-04-15T11:20:01.301Z,35.59
2023-04-15T11:21:06.276Z,35.21
2023-04-15T11:22:11.048Z,35.23
2023-04-15T11:23:16.091Z,35.17
2023-04-15T11:24:29.197Z,34.64
2023-04-15T11:25:34.624Z,35.19
2023-04-15T11:26:39.320Z,34.62
2023-04-15T11:27:44.139Z,34.88
2023-04-15T11:28:49.140Z,34.97
2023-04-15T11:29:54.150Z,34.10
2023-04-15T11:30:59.307Z,34.54
2023-04-15T11:32:08.579Z,34.36
2023-04-15T11:33:13.635Z,34.99
2023-04-15T11:34:23.764Z,34.33
2023-04-15T11:35:28.152Z,34.22
2023-04-15T11:36:32.946Z,34.60
2023-04-15T11:37:37.871Z,34.88
2023-04-15T11:38:45.947Z,33.65
2023-04-15T11:39:50.476Z,32.75
2023-04-15T11:40:55.120Z,32.83
2023-04-15T11:41:59.705Z,33.34
2023-04-15T11:43:06.465Z,33.21
2023-04-15T11:44:19.731Z,33.44
2023-04-15T11:45:24.309Z,33.27
2023-04-15T11:46:32.726Z,33.41
2023-04-15T11:47:38.053Z,33.61
2023-04-15T11:48:46.263Z,33.03
2023-04-15T11:49:50.654Z,32.72
2023-04-15T11:50:57.016Z,33.14
2023-04-15T11:52:01.132Z,33.25
2023-04-15T11:53:08.647Z,32.96
2023-04-15T11:54:12.193Z,32.93
2023-04-15T11:55:16.126Z,32.50
2023-04-15T11:56:23.170Z,32.63
2023-04-15T11:57:31.930Z,32.46
2023-04-15T11:58:35.643Z,32.59
2023-04-15T11:59:45.980Z,32.93
2023-04-15T12:00:50.387Z,32.94
2023-04-15T12:01:53.363Z,32.82
2023-04-15T12:03:12.929Z,32.34
2023-04-15T12:04:19.028Z,31.59
2023-04-15T12:05:23.566Z,31.47
2023-04-15T12:06:28.745Z,31.31
2023-04-15T12:07:33.253Z,31.31
2023-04-15T12:08:51.530Z,31.49
2023-04-15T12:09:58.122Z,31.60
2023-04-15T12:11:01.011Z,31.74
2023-04-15T12:12:04.319Z,32.07
2023-04-15T12:13:08.217Z,32.10
2023-04-15T12:14:17.637Z,32.31
2023-04-15T12:15:24.617Z,31.85
2023-04-15T12:16:29.020Z,32.27
2023-04-15T12:17:51.827Z,32.44
2023-04-15T12:19:00.180Z,32.79
2023-04-15T12:20:03.918Z,32.67
2023-04-15T12:21:12.315Z,32.93
2023-04-15T12:22:16.542Z,32.73
2023-04-15T12:23:22.620Z,32.94
2023-04-15T12:24:25.458Z,33.32
2023-04-15T12:25:37.212Z,33.10
2023-04-15T12:26:47.460Z,32.63
2023-04-15T12:27:54.079Z,32.64
2023-04-15T12:28:57.910Z,32.69
2023-04-15T12:30:06.500Z,32.81
2023-04-15T12:31:10.478Z,32.11
2023-04-15T12:32:14.034Z,31.75
2023-04-15T12:33:17.688Z,31.61
2023-04-15T12:34:27.699Z,31.55
2023-04-15T12:35:31.036Z,31.51
2023-04-15T12:36:37.667Z,31.10
2023-04-15T12:37:41.157Z,31.12
2023-04-15T12:38:44.490Z,30.62
2023-04-15T12:39:50.059Z,30.62
2023-04-15T12:40:53.656Z,30.24
2023-04-15T12:41:56.795Z,29.78
2023-04-15T12:42:59.713Z,29.67
2023-04-15T12:44:03.471Z,29.07
2023-04-15T12:45:07.404Z,29.03
2023-04-15T12:46:11.297Z,28.84
2023-04-15T12:47:14.676Z,28.53
2023-04-15T12:48:18.004Z,28.17
2023-04-15T12:49:24.485Z,28.02
2023-04-15T12:50:27.436Z,27.93
2023-04-15T12:51:30.352Z,27.89
2023-04-15T12:52:33.801Z,28.07
2023-04-15T12:53:37.924Z,28.03
2023-04-15T12:54:41.145Z,28.06
2023-04-15T12:55:44.147Z,27.80
2023-04-15T12:56:47.386Z,27.77
2023-04-15T12:57:50.416Z,27.44
2023-04-15T12:58:54.054Z,27.45
2023-04-15T12:59:57.444Z,27.33
2023-04-15T13:01:00.972Z,27.01
2023-04-15T13:02:04.569Z,27.14
2023-04-15T13:03:08.231Z,27.15
2023-04-15T13:04:12.204Z,27.09
2023-04-15T13:05:16.344Z,26.75
2023-04-15T13:06:19.813Z,26.26
2023-04-15T13:07:22.857Z,26.11
2023-04-15T13:08:26.606Z,25.90
2023-04-15T13:09:30.154Z,25.96
2023-04-15T13:10:33.591Z,25.96
2023-04-15T13:11:37.471Z,25.95
2023-04-15T13:12:40.833Z,26.06
2023-04-15T13:13:44.268Z,25.95
2023-04-15T13:14:47.808Z,25.83
2023-04-15T13:15:51.111Z,25.94
2023-04-15T13:16:55.074Z,25.69
2023-04-15T13:17:57.939Z,25.58
2023-04-15T13:19:01.575Z,25.56
2023-04-15T13:20:04.816Z,25.47
2023-04-15T13:21:08.242Z,25.29
2023-04-15T13:22:12.190Z,25.24
2023-04-15T13:23:15.611Z,25.36
2023-04-15T13:24:18.733Z,25.46
2023-04-15T13:25:22.046Z,25.50
2023-04-15T13:26:25.415Z,25.56
2023-04-15T13:27:28.312Z,25.33
2023-04-15T13:28:31.988Z,25.07
2023-04-15T13:29:35.485Z,25.00
2023-04-15T13:30:38.602Z,25.05
2023-04-15T13:31:41.993Z,24.92
2023-04-15T13:32:45.486Z,24.97
2023-04-15T13:33:49.103Z,24.82
2023-04-15T13:34:52.233Z,24.69
2023-04-15T13:35:55.779Z,24.69
2023-04-15T13:36:59.051Z,24.72
2023-04-15T13:38:02.238Z,24.67
2023-04-15T13:39:06.650Z,24.61
2023-04-15T13:40:10.382Z,24.61
2023-04-15T13:41:13.253Z,24.72
2023-04-15T13:42:16.489Z,24.44
2023-04-15T13:43:19.373Z,24.25
2023-04-15T13:44:22.402Z,24.29
2023-04-15T13:45:25.460Z,24.26
2023-04-15T13:46:28.199Z,24.26
2023-04-15T13:47:31.616Z,24.17
2023-04-15T13:48:35.194Z,24.12
2023-04-15T13:49:38.750Z,24.09
2023-04-15T13:50:46.270Z,23.99
2023-04-15T13:51:49.088Z,24.01
2023-04-15T13:52:52.150Z,24.02
2023-04-15T13:53:55.752Z,23.97
2023-04-15T13:55:07.315Z,23.87
2023-04-15T13:56:22.583Z,23.76
2023-04-15T13:57:26.508Z,23.81
2023-04-15T13:58:29.637Z,23.84
2023-04-15T13:59:33.966Z,23.86